Männerspielzeug, Seite 2/7

„Sabine“ am Flughafen Amsterdam

METAR-Informationen sind nicht nur für die Fliegerei praktische und kompakte Möglichkeiten, Wetterbedingungen zusammenzufassen. Hier braust zum Beispiel am 09. Januar 2020 das Sturmtief „Sabine“ mit Windgeschwindigkeiten bis zu 51 Knoten über den Flughafen Amsterdam-Schiphol:

EHAM 091725Z 20037G51KT 170V230 9999 FEW011 BKN014 BKN025 11/11 Q0986 RE/RA TEMPO 7000

Solch einen METAR-Code kann z.B. mit dem Aerofly FS2 Wettergerät verwendet werden.

Kalorien sind auch eine Option: Stipp(isch)

Es gibt Gerichte, die trotz allem schlechten Gewissen oder entgegen ärztlichen Ratschlägen immer wieder gerne auf den Tisch kommen. Eines davon ist Stipp(isch) – ein Gericht, das in jüngster Zeit wieder neue Fans gefunden hat. Höchste Zeit also, das Rezept zu verraten.

Weiter lesen…

fboës - Der Blog
Andere Artikel zum Thema ·